logo
Rechercher aéroport 
image banner adimage banner adimage banner ad
image banner ad

CL32 - Garland Center

Situé à Los Angeles, United States

ICAO - CL32, IATA -

Données fournies par Airmate  

Information générale

Coordonnées: N34°3'3" W118°15'56"
Élévation : 430 feet MSL.
Variation magnétique : 14° East
Voir autres Aéroports à California

Données opérationnelles

Special qualification required
Heure actuelle UTC:
Heure actuelle locale:
METAR: KHHR 051653Z 30005KT 10SM SCT022 BKN028 BKN035 16/11 A3007 RMK AO2 SLP184 T01560111
Voir NOTAMs / SUP AIP / TFR affectant cet aéroport [VIEW]
Fréquences de communication: [VIEW]

Pistes:

Coordonnées de l'aéroport

Adresse: Los Angeles United States

Vue satellite de CL32